Bauxite, Arkansas
Current Conditions -  °F | °C
As of 3:53 AM on Saturday 22 Nov 2014 (Local Time) from KLIT Reporting Station
Light Fog Light Fog  
Wind Chill: 47°   Ceiling: 5500
Heat Index: 47°   Visibility: 2.5mi
Dew Point: 44°   Wind: 0mph
Humidity: 90%   Direction: NA
Pressure: 30.22"   Gusts: NA
Location:  34.56°N, 92.52°W
Report Text: KLIT 220953Z 00000KT 2 1/2SM BR MIFG OVC055 08/07 A3022 RMK AO2 SLP235 T00830067
Loading
Personal Weather Stations






























Interactive Weather Map New forecast layout! Learn more

10-Day Weather Forecast

Advertisements
Track Severe Weather on mobile